Flight Track Log - Related Links

Times and Time Zones

All times are in EDT time to prevent confusion due to time zone crossing. See the DAL1153 flight status page for this flight to view local times or setup timezone preferences in your user account.

Time Position Orientation Groundspeed Altitude Reporting Facility
EDT Latitude Longitude Course Direction KTS MPH feet Rate Location/Type
Fri 02:38:46 PM 33.6578 -84.5131 252° West 453 521 3,300  Level Atlanta Center
Fri 02:39:03 PM 33.6667 -84.5333 298° West 247 284 4,100 3,039 Climbing Atlanta TRACON
Fri 02:40:03 PM 33.6833 -84.6167 284° West 267 307 7,200 2,466 Climbing Atlanta TRACON
Fri 02:41:46 PM 33.6981 -84.7703 277° West 294 338 10,800 1,767 Climbing Atlanta Center
Fri 02:42:46 PM 33.6869 -84.8778 263° West 310 357 12,000 1,650 Climbing Atlanta Center
Fri 02:43:46 PM 33.6736 -85.0047 263° West 363 418 14,100 2,500 Climbing Atlanta Center
Fri 02:44:00 PM 33.7732 -84.7141 252° West  Level FlightAware Approximate
Fri 02:44:46 PM 33.6578 -85.1444 262° West 386 444 17,000  Level Atlanta Center
Fri 02:45:46 PM 33.6483 -85.2767 265° West 392 451 18,300 1,550 Climbing Atlanta Center
Fri 02:46:46 PM 33.6800 -85.4169 285° West 411 473 20,100 1,700 Climbing Atlanta Center
Fri 02:47:46 PM 33.7097 -85.5572 284° West 428 493 21,700 1,500 Climbing Atlanta Center
Fri 02:48:46 PM 33.7350 -85.7025 282° West 440 506 23,100 1,850 Climbing Atlanta Center
Fri 02:49:46 PM 33.7603 -85.8428 282° West 443 510 25,400 2,200 Climbing Atlanta Center
Fri 02:50:46 PM 33.7853 -85.9808 282° West 431 496 27,500 2,000 Climbing Atlanta Center
Fri 02:51:46 PM 33.8100 -86.1164 282° West 426 490 29,400 1,250 Climbing Atlanta Center
Fri 02:52:46 PM 33.8328 -86.2469 282° West 419 482 30,000 300 Climbing Atlanta Center
Fri 02:53:46 PM 33.8597 -86.3803 284° West 409 471 30,000  Level Atlanta Center
Fri 02:54:46 PM 33.8800 -86.5108 281° West 409 471 30,000  Level Atlanta Center
Fri 02:55:46 PM 33.9025 -86.6417 282° West 409 471 30,000  Level Atlanta Center
Fri 02:56:46 PM 33.9247 -86.7750 281° West 409 471 30,000  Level Atlanta Center
Fri 02:58:21 PM 33.9600 -86.9914 281° West 416 479 30,000  Level Memphis Center
Fri 02:59:21 PM 33.9822 -87.1233 282° West 404 465 30,000  Level Memphis Center
Fri 03:00:21 PM 34.0039 -87.2353 283° West 400 460 30,000  Level Memphis Center
Fri 03:01:21 PM 34.0281 -87.3672 282° West 395 455 30,000  Level Memphis Center
Fri 03:02:21 PM 34.0478 -87.4967 280° West 395 455 30,000  Level Memphis Center
Fri 03:03:20 PM 34.0719 -87.6414 281° West 395 455 30,000  Level Memphis Center
Fri 03:04:21 PM 34.0936 -87.7711 281° West 401 461 30,000  Level Memphis Center
Fri 03:05:21 PM 34.1128 -87.9036 280° West 401 461 30,000  Level Memphis Center
Fri 03:06:21 PM 34.1364 -88.0333 282° West 401 461 30,000  Level Memphis Center
Fri 03:07:21 PM 34.1553 -88.1608 280° West 401 461 30,000  Level Memphis Center
Fri 03:08:21 PM 34.1719 -88.2808 280° West 401 461 30,000  Level Memphis Center
Fri 03:09:20 PM 34.1928 -88.4086 281° West 401 461 30,000  Level Memphis Center
Fri 03:10:21 PM 34.2114 -88.5336 280° West 395 455 30,000  Level Memphis Center
Fri 03:11:20 PM 34.2319 -88.6589 281° West 390 449 30,000  Level Memphis Center
Fri 03:12:20 PM 34.2503 -88.7867 280° West 390 449 30,000  Level Memphis Center
Fri 03:13:20 PM 34.2581 -88.9097 274° West 384 442 30,000  Level Memphis Center
Fri 03:14:20 PM 34.2617 -89.0353 272° West 379 436 30,000  Level Memphis Center
Fri 03:15:20 PM 34.2669 -89.1608 273° West 379 436 30,000  Level Memphis Center
Fri 03:16:21 PM 34.2703 -89.2914 272° West 385 443 30,000  Level Memphis Center
Fri 03:17:21 PM 34.2736 -89.4222 272° West 385 443 30,000 -500 Level Memphis Center
Fri 03:18:21 PM 34.2786 -89.5678 272° West 385 443 29,000 -1,513 Descending Memphis Center
Fri 03:19:20 PM 34.2836 -89.6986 273° West 390 449 27,000 -1,613 Descending Memphis Center
Fri 03:20:20 PM 34.2842 -89.8317 270° West 390 449 25,800 -1,100 Descending Memphis Center
Fri 03:21:20 PM 34.2911 -89.9600 274° West 390 449 24,800 -900 Descending Memphis Center
Fri 03:22:20 PM 34.2933 -90.0881 271° West 385 443 24,000 -400 Descending Memphis Center
Fri 03:23:20 PM 34.2958 -90.2139 271° West 379 436 24,000  Level Memphis Center
Fri 03:24:20 PM 34.3000 -90.3269 273° West 386 444 24,000 -300 Level Memphis Center
Fri 03:25:20 PM 34.3061 -90.4528 273° West 386 444 23,400 -1,850 Descending Memphis Center
Fri 03:26:20 PM 34.3081 -90.5758 271° West 380 437 20,300 -2,727 Descending Memphis Center
Fri 03:27:21 PM 34.3100 -90.6992 271° West 374 430 17,900 -2,479 Descending Memphis Center
Fri 03:28:21 PM 34.3117 -90.8197 271° West 369 425 15,300 -2,200 Descending Memphis Center
Fri 03:29:21 PM 34.3153 -90.9356 272° West 356 410 13,500 -1,800 Descending Memphis Center
Fri 03:30:21 PM 34.3169 -91.0564 271° West 342 394 11,700 -2,000 Descending Memphis Center
Fri 03:30:57 PM 34.3144 -91.1217 267° West 304 350 10,300 -1,600 Descending Memphis Center
Fri 03:31:21 PM 34.3183 -91.1569 278° West 315 362 10,100 -279 Descending Memphis Center
Fri 03:31:40 PM 34.3181 -91.1894 269° West 301 346 10,100 -100 Level Memphis Center
Fri 03:32:21 PM 34.3219 -91.2500 274° West 294 338 10,000 -100 Descending Memphis Center
Fri 03:32:40 PM 34.3217 -91.2828 269° West 273 314 10,000  Level Memphis Center
Fri 03:33:21 PM 34.3233 -91.3431 272° West 277 319 10,000  Level Memphis Center
Fri 03:33:41 PM 34.3231 -91.3783 269° West 270 311 10,000 -800 Level Memphis Center
Fri 03:34:21 PM 34.3308 -91.4336 280° West 277 319 9,200 -1,279 Descending Memphis Center
Fri 03:34:42 PM 34.3328 -91.4664 274° West 273 314 8,700 -1,400 Descending Memphis Center
Fri 03:35:21 PM 34.3425 -91.5219 282° West 269 310 7,800 -1,433 Descending Memphis Center
Fri 03:35:49 PM 34.3486 -91.5647 280° West 269 310 7,100 -1,400 Descending Memphis Center
Fri 03:36:21 PM 34.3356 -91.6097 251° West 269 310 6,400 -1,082 Descending Memphis Center
Fri 03:36:50 PM 34.3308 -91.6550 263° West 262 302 6,000 -400 Descending Memphis Center
Fri 03:37:21 PM 34.3347 -91.6953 277° West 269 310 6,000  Level Memphis Center
Fri 03:37:50 PM 34.3361 -91.7406 272° West 266 306 6,000  Level Memphis Center
Fri 03:38:21 PM 34.3422 -91.7758 282° West 269 310 6,000  Level Memphis Center
Fri 03:38:51 PM 34.3436 -91.8339 272° West 267 307 6,000  Level Memphis Center
Fri 03:39:21 PM 34.3517 -91.8617 289° West 269 310 6,000  Level Memphis Center
Fri 03:39:52 PM 34.3697 -91.9097 294° West 270 311 6,000  Level Memphis Center
Fri 03:40:21 PM 34.3944 -91.9328 322° Northwest 261 300 6,000  Level Memphis Center
Fri 03:40:53 PM 34.4272 -91.9761 313° West 273 314 6,000  Level Memphis Center
Fri 03:41:21 PM 34.4478 -91.9967 320° Northwest 261 300 6,000 -667 Level Memphis Center
Fri 03:41:47 PM 34.4811 -92.0150 336° Northwest 275 316 5,400 -1,100 Descending Memphis Center
Fri 03:42:21 PM 34.5208 -92.0108 North 250 288 4,900 -1,397 Descending Memphis Center
Fri 03:43:00 PM 34.5711 -91.9992 11° North 268 308 3,700 -1,500 Descending Memphis Center
Fri 03:43:21 PM 34.5939 -91.9994 359° North 240 276 3,400 -545 Descending Memphis Center
Fri 03:43:55 PM 34.6461 -91.9906 North 275 316 3,200 -400 Descending Memphis Center
Fri 03:44:21 PM 34.6672 -91.9883 North 264 304 3,000 -818 Descending Memphis Center
Fri 03:45:01 PM 34.7278 -91.9819 North 260 299 2,300 -600 Descending Memphis Center
Fri 03:45:21 PM 34.7506 -91.9822 359° North 264 304 2,400 -295 Climbing Memphis Center
Fri 03:46:02 PM 34.7858 -91.9956 343° North 221 254 2,000 -353 Descending Memphis Center
Fri 03:47:03 PM 34.8039 -92.0617 288° West 204 235 1,800 -99 Descending Memphis Center
Fri 03:48:03 PM 34.7947 -92.1222 260° West 185 213 1,800  Level Memphis Center

Login

Don't have an account? Register now (free) for customized features, flight alerts, and more!